Time,TemperatureF,DewpointF,PressureIn,WindDirection,WindDirectionDegrees,WindSpeedMPH,WindSpeedGustMPH,Humidity,HourlyPrecipIn,Conditions,Clouds,dailyrainin,SoftwareType,DateUTC
2013-02-13 00:04:00,40.5,27.0,29.91,WNW,297,0.0,0.0,59,0.00,,,0.00,weatherlink.com 1.10,2013-02-13 05:04:00,
2013-02-13 00:20:00,38.3,27.0,29.91,WNW,298,0.0,1.0,64,0.00,,,0.00,weatherlink.com 1.10,2013-02-13 05:20:00,
2013-02-13 00:35:00,38.8,27.0,29.90,NNW,334,0.0,1.0,63,0.00,,,0.00,weatherlink.com 1.10,2013-02-13 05:35:00,
2013-02-13 00:50:00,38.9,27.0,29.90,NNW,336,0.0,1.0,63,0.00,,,0.00,weatherlink.com 1.10,2013-02-13 05:50:00,
2013-02-13 01:05:00,39.1,27.0,29.89,NNW,334,0.0,0.0,62,0.00,,,0.00,weatherlink.com 1.10,2013-02-13 06:05:00,
2013-02-13 01:20:00,37.8,27.0,29.89,NNW,334,0.0,1.0,65,0.00,,,0.00,weatherlink.com 1.10,2013-02-13 06:20:00,
2013-02-13 01:35:00,37.7,27.0,29.88,North,351,2.0,4.0,65,0.00,,,0.00,weatherlink.com 1.10,2013-02-13 06:35:00,
2013-02-13 01:50:00,38.2,27.0,29.88,ESE,119,1.0,2.0,64,0.00,,,0.00,weatherlink.com 1.10,2013-02-13 06:50:00,
2013-02-13 02:05:00,38.3,27.0,29.88,WNW,287,0.0,3.0,64,0.00,,,0.00,weatherlink.com 1.10,2013-02-13 07:05:00,
2013-02-13 02:20:00,37.9,27.0,29.88,North,1,0.0,3.0,65,0.00,,,0.00,weatherlink.com 1.10,2013-02-13 07:20:00,
2013-02-13 02:35:00,37.7,27.0,29.88,NW,312,0.0,2.0,66,0.00,,,0.00,weatherlink.com 1.10,2013-02-13 07:35:00,
2013-02-13 02:50:00,37.0,28.0,29.87,WNW,282,0.0,5.0,69,0.00,,,0.00,weatherlink.com 1.10,2013-02-13 07:50:00,
2013-02-13 03:05:00,36.4,27.0,29.87,West,262,0.0,1.0,70,0.00,,,0.00,weatherlink.com 1.10,2013-02-13 08:05:00,
2013-02-13 03:20:00,36.1,28.0,29.87,ENE,63,2.0,5.0,72,0.00,,,0.00,weatherlink.com 1.10,2013-02-13 08:20:00,
2013-02-13 03:35:00,35.7,28.0,29.86,North,4,1.0,6.0,73,0.00,,,0.00,weatherlink.com 1.10,2013-02-13 08:35:00,
2013-02-13 03:50:00,35.2,28.0,29.86,NNE,13,2.0,7.0,75,0.00,,,0.00,weatherlink.com 1.10,2013-02-13 08:50:00,
2013-02-13 04:05:00,34.8,29.0,29.86,NNE,20,2.0,8.0,78,0.00,,,0.00,weatherlink.com 1.10,2013-02-13 09:05:00,
2013-02-13 04:20:00,34.4,29.0,29.84,SE,139,1.0,8.0,79,0.00,,,0.00,weatherlink.com 1.10,2013-02-13 09:20:00,
2013-02-13 04:35:00,34.0,29.0,29.83,North,356,5.0,10.0,81,0.00,,,0.00,weatherlink.com 1.10,2013-02-13 09:35:00,
2013-02-13 04:50:00,33.7,29.0,29.83,SSE,162,1.0,7.0,82,0.00,,,0.00,weatherlink.com 1.10,2013-02-13 09:50:00,
2013-02-13 05:05:00,33.5,29.0,29.82,North,360,6.0,9.0,83,0.00,,,0.00,weatherlink.com 1.10,2013-02-13 10:05:00,
2013-02-13 05:20:00,33.4,29.0,29.82,NNE,33,3.0,6.0,84,0.00,,,0.00,weatherlink.com 1.10,2013-02-13 10:20:00,
2013-02-13 05:35:00,33.3,29.0,29.81,North,353,2.0,6.0,85,0.00,,,0.00,weatherlink.com 1.10,2013-02-13 10:35:00,
2013-02-13 05:50:00,33.3,29.0,29.82,NNE,16,0.0,4.0,85,0.00,,,0.00,weatherlink.com 1.10,2013-02-13 10:50:00,
2013-02-13 06:05:00,33.3,30.0,29.81,North,6,0.0,2.0,86,0.00,,,0.00,weatherlink.com 1.10,2013-02-13 11:05:00,
2013-02-13 06:21:00,33.1,29.0,29.79,NE,45,0.0,3.0,86,0.00,,,0.00,weatherlink.com 1.10,2013-02-13 11:21:00,
2013-02-13 06:35:00,33.1,29.0,29.79,ENE,60,1.0,5.0,86,0.00,,,0.00,weatherlink.com 1.10,2013-02-13 11:35:00,
2013-02-13 06:50:00,32.9,30.0,29.78,NE,51,1.0,5.0,87,0.00,,,0.00,weatherlink.com 1.10,2013-02-13 11:50:00,
2013-02-13 07:06:00,32.7,29.0,29.78,NE,39,0.0,4.0,87,0.00,,,0.00,weatherlink.com 1.10,2013-02-13 12:06:00,
2013-02-13 07:21:00,32.5,29.0,29.78,NNE,33,0.0,5.0,88,0.00,,,0.00,weatherlink.com 1.10,2013-02-13 12:21:00,
2013-02-13 07:36:00,32.3,29.0,29.77,NNE,27,0.0,4.0,88,0.00,,,0.00,weatherlink.com 1.10,2013-02-13 12:36:00,
2013-02-13 07:51:00,32.2,29.0,29.77,NE,36,2.0,3.0,88,0.00,,,0.00,weatherlink.com 1.10,2013-02-13 12:51:00,
2013-02-13 08:06:00,32.3,30.0,29.79,West,281,0.0,1.0,89,0.00,,,0.00,weatherlink.com 1.10,2013-02-13 13:06:00,
2013-02-13 08:21:00,32.3,29.0,29.80,NNE,13,0.0,4.0,88,0.00,,,0.00,weatherlink.com 1.10,2013-02-13 13:21:00,
2013-02-13 08:36:00,32.2,29.0,29.81,NE,40,2.0,3.0,88,0.00,,,0.00,weatherlink.com 1.10,2013-02-13 13:36:00,
2013-02-13 08:51:00,32.2,29.0,29.82,NE,41,1.0,2.0,88,0.00,,,0.00,weatherlink.com 1.10,2013-02-13 13:51:00,
2013-02-13 09:06:00,32.4,29.0,29.83,North,352,0.0,1.0,88,0.00,,,0.00,weatherlink.com 1.10,2013-02-13 14:06:00,
2013-02-13 09:21:00,32.5,29.0,29.84,West,264,0.0,1.0,88,0.00,,,0.00,weatherlink.com 1.10,2013-02-13 14:21:00,
2013-02-13 09:36:00,32.5,29.0,29.84,WNW,302,1.0,3.0,88,0.00,,,0.00,weatherlink.com 1.10,2013-02-13 14:36:00,
2013-02-13 09:51:00,32.5,29.0,29.84,West,271,0.0,3.0,88,0.00,,,0.00,weatherlink.com 1.10,2013-02-13 14:51:00,
2013-02-13 10:06:00,32.3,29.0,29.84,WNW,294,1.0,6.0,87,0.00,,,0.00,weatherlink.com 1.10,2013-02-13 15:06:00,
2013-02-13 10:21:00,31.9,29.0,29.84,ENE,73,1.0,4.0,90,0.00,,,0.00,weatherlink.com 1.10,2013-02-13 15:21:00,
2013-02-13 10:36:00,31.2,29.0,29.83,NW,321,4.0,5.0,92,0.00,,,0.00,weatherlink.com 1.10,2013-02-13 15:36:00,
2013-02-13 10:51:00,30.9,29.0,29.82,NNW,330,1.0,4.0,94,0.00,,,0.00,weatherlink.com 1.10,2013-02-13 15:51:00,
2013-02-13 11:06:00,31.0,30.0,29.82,SSW,201,0.0,3.0,94,0.00,,,0.00,weatherlink.com 1.10,2013-02-13 16:06:00,
2013-02-13 11:21:00,31.1,30.0,29.81,NNE,25,0.0,3.0,94,0.00,,,0.00,weatherlink.com 1.10,2013-02-13 16:21:00,
2013-02-13 11:36:00,31.3,30.0,29.81,East,94,0.0,4.0,94,0.00,,,0.00,weatherlink.com 1.10,2013-02-13 16:36:00,
2013-02-13 11:51:00,31.4,30.0,29.82,North,358,0.0,4.0,94,0.00,,,0.00,weatherlink.com 1.10,2013-02-13 16:51:00,
2013-02-13 12:06:00,31.4,30.0,29.81,West,263,1.0,5.0,94,0.00,,,0.00,weatherlink.com 1.10,2013-02-13 17:06:00,
2013-02-13 12:21:00,31.6,30.0,29.81,North,358,0.0,2.0,94,0.00,,,0.00,weatherlink.com 1.10,2013-02-13 17:21:00,
2013-02-13 12:36:00,31.7,30.0,29.81,WNW,298,0.0,2.0,94,0.00,,,0.00,weatherlink.com 1.10,2013-02-13 17:36:00,
2013-02-13 12:51:00,31.9,30.0,29.80,West,273,0.0,1.0,94,0.00,,,0.00,weatherlink.com 1.10,2013-02-13 17:51:00,
2013-02-13 13:06:00,31.9,30.0,29.80,WNW,294,0.0,3.0,94,0.00,,,0.00,weatherlink.com 1.10,2013-02-13 18:06:00,
2013-02-13 13:21:00,32.1,31.0,29.79,West,276,0.0,2.0,94,0.00,,,0.00,weatherlink.com 1.10,2013-02-13 18:21:00,
2013-02-13 13:36:00,32.6,31.0,29.79,WNW,295,0.0,2.0,94,0.00,,,0.00,weatherlink.com 1.10,2013-02-13 18:36:00,
2013-02-13 13:51:00,32.6,31.0,29.79,West,271,0.0,2.0,93,0.00,,,0.00,weatherlink.com 1.10,2013-02-13 18:51:00,
2013-02-13 14:06:00,33.1,31.0,29.78,West,260,0.0,1.0,93,0.00,,,0.00,weatherlink.com 1.10,2013-02-13 19:06:00,
2013-02-13 14:21:00,32.4,31.0,29.79,WNW,290,0.0,3.0,93,0.00,,,0.00,weatherlink.com 1.10,2013-02-13 19:21:00,
2013-02-13 14:36:00,32.3,31.0,29.79,WNW,294,0.0,3.0,94,0.00,,,0.00,weatherlink.com 1.10,2013-02-13 19:36:00,
2013-02-13 14:51:00,32.5,31.0,29.80,West,274,0.0,4.0,95,0.00,,,0.00,weatherlink.com 1.10,2013-02-13 19:51:00,
2013-02-13 15:06:00,32.7,32.0,29.80,WNW,295,2.0,4.0,95,0.00,,,0.00,weatherlink.com 1.10,2013-02-13 20:06:00,
2013-02-13 15:21:00,32.8,32.0,29.80,WSW,257,0.0,1.0,95,0.00,,,0.00,weatherlink.com 1.10,2013-02-13 20:21:00,
2013-02-13 15:51:00,33.1,32.0,29.81,North,357,0.0,3.0,94,0.00,,,0.00,weatherlink.com 1.10,2013-02-13 20:51:00,
2013-02-13 16:22:00,33.5,32.0,29.82,West,263,2.0,3.0,94,0.00,,,0.00,weatherlink.com 1.10,2013-02-13 21:22:00,
2013-02-13 16:37:00,33.7,32.0,29.82,West,264,1.0,3.0,94,0.00,,,0.00,weatherlink.com 1.10,2013-02-13 21:37:00,
2013-02-13 16:52:00,34.7,33.0,29.82,SW,218,1.0,2.0,93,0.00,,,0.00,weatherlink.com 1.10,2013-02-13 21:52:00,
2013-02-13 17:06:00,35.1,32.0,29.83,WNW,298,0.0,3.0,89,0.00,,,0.00,weatherlink.com 1.10,2013-02-13 22:06:00,
2013-02-13 17:21:00,35.3,32.0,29.83,WSW,238,1.0,4.0,88,0.01,,,0.01,weatherlink.com 1.10,2013-02-13 22:21:00,
2013-02-13 17:37:00,34.1,32.0,29.84,WSW,252,1.0,3.0,90,0.01,,,0.01,weatherlink.com 1.10,2013-02-13 22:37:00,
2013-02-13 17:51:00,33.6,31.0,29.84,SW,219,0.0,1.0,91,0.01,,,0.01,weatherlink.com 1.10,2013-02-13 22:51:00,
2013-02-13 18:06:00,33.1,31.0,29.85,WSW,242,0.0,1.0,92,0.01,,,0.01,weatherlink.com 1.10,2013-02-13 23:06:00,
2013-02-13 18:21:00,32.6,31.0,29.86,SW,232,2.0,2.0,93,0.01,,,0.02,weatherlink.com 1.10,2013-02-13 23:21:00,
2013-02-13 18:36:00,32.5,31.0,29.86,SSW,207,3.0,3.0,94,0.01,,,0.02,weatherlink.com 1.10,2013-02-13 23:36:00,
2013-02-13 18:51:00,32.4,31.0,29.87,SSW,204,2.0,3.0,94,0.01,,,0.02,weatherlink.com 1.10,2013-02-13 23:51:00,
2013-02-13 19:07:00,32.2,31.0,29.87,South,184,0.0,2.0,94,0.01,,,0.02,weatherlink.com 1.10,2013-02-14 00:07:00,
2013-02-13 19:21:00,32.1,31.0,29.88,SW,214,2.0,2.0,94,0.00,,,0.02,weatherlink.com 1.10,2013-02-14 00:21:00,
2013-02-13 19:37:00,32.1,31.0,29.89,SW,218,1.0,2.0,94,0.00,,,0.02,weatherlink.com 1.10,2013-02-14 00:37:00,
2013-02-13 19:51:00,31.8,30.0,29.89,SSE,162,1.0,2.0,94,0.00,,,0.02,weatherlink.com 1.10,2013-02-14 00:51:00,
2013-02-13 20:07:00,31.6,30.0,29.89,SSW,211,1.0,2.0,95,0.00,,,0.02,weatherlink.com 1.10,2013-02-14 01:07:00,
2013-02-13 20:21:00,31.3,30.0,29.90,SSW,208,0.0,2.0,95,0.00,,,0.02,weatherlink.com 1.10,2013-02-14 01:21:00,
2013-02-13 20:37:00,31.2,30.0,29.90,SSW,200,2.0,3.0,96,0.00,,,0.02,weatherlink.com 1.10,2013-02-14 01:37:00,
2013-02-13 20:51:00,31.2,30.0,29.90,SW,215,1.0,5.0,96,0.00,,,0.02,weatherlink.com 1.10,2013-02-14 01:51:00,
2013-02-13 21:07:00,31.0,30.0,29.90,SSW,211,1.0,3.0,96,0.00,,,0.02,weatherlink.com 1.10,2013-02-14 02:07:00,
2013-02-13 21:22:00,31.0,30.0,29.91,SSW,203,0.0,3.0,96,0.00,,,0.02,weatherlink.com 1.10,2013-02-14 02:22:00,
2013-02-13 21:37:00,30.8,30.0,29.91,SW,219,0.0,1.0,96,0.00,,,0.02,weatherlink.com 1.10,2013-02-14 02:37:00,
2013-02-13 21:52:00,30.9,30.0,29.92,SW,214,0.0,1.0,97,0.00,,,0.02,weatherlink.com 1.10,2013-02-14 02:52:00,
2013-02-13 22:07:00,30.8,30.0,29.92,SSW,207,1.0,2.0,96,0.00,,,0.02,weatherlink.com 1.10,2013-02-14 03:07:00,
2013-02-13 22:22:00,30.6,30.0,29.92,SSW,198,2.0,2.0,96,0.00,,,0.02,weatherlink.com 1.10,2013-02-14 03:22:00,
2013-02-13 22:37:00,30.5,30.0,29.91,South,183,2.0,2.0,96,0.00,,,0.02,weatherlink.com 1.10,2013-02-14 03:37:00,
2013-02-13 22:52:00,30.6,30.0,29.92,SSE,150,0.0,2.0,96,0.00,,,0.02,weatherlink.com 1.10,2013-02-14 03:52:00,
2013-02-13 23:07:00,30.4,29.0,29.92,SSE,156,2.0,3.0,95,0.00,,,0.02,weatherlink.com 1.10,2013-02-14 04:07:00,
2013-02-13 23:22:00,30.4,29.0,29.92,South,172,2.0,2.0,95,0.00,,,0.02,weatherlink.com 1.10,2013-02-14 04:22:00,
2013-02-13 23:37:00,30.5,29.0,29.92,SSE,168,0.0,2.0,95,0.00,,,0.02,weatherlink.com 1.10,2013-02-14 04:37:00,